createdAt,value
2023-01-30T00:01:30.160Z,101810.63
2023-01-30T00:49:45.884Z,101755.47
2023-01-30T00:52:15.269Z,101755.97
2023-01-30T00:54:44.069Z,101751.53
2023-01-30T00:57:16.218Z,101759.84
2023-01-30T00:59:44.569Z,101757.22
2023-01-30T01:15:42.897Z,101754.38
2023-01-30T01:20:46.861Z,101750.88
2023-01-30T01:23:15.656Z,101747.03
2023-01-30T01:25:44.224Z,101738.66
2023-01-30T01:28:12.760Z,101744.50
2023-01-30T01:38:39.207Z,101730.53
2023-01-30T02:54:14.490Z,101668.13
2023-01-30T02:56:53.136Z,101669.63
2023-01-30T03:02:05.627Z,101665.09
2023-01-30T03:04:35.837Z,101658.88
2023-01-30T03:10:21.840Z,101646.56
2023-01-30T03:13:04.405Z,101647.19
2023-01-30T03:15:54.719Z,101643.78
2023-01-30T03:18:22.860Z,101644.03
2023-01-30T03:20:51.701Z,101647.44
2023-01-30T03:23:21.099Z,101638.22
2023-01-30T03:25:48.763Z,101629.00
2023-01-30T03:57:58.239Z,101605.81
2023-01-30T04:00:28.058Z,101602.88
2023-01-30T04:02:57.306Z,101600.81
2023-01-30T04:05:26.147Z,101586.91
2023-01-30T04:07:59.386Z,101595.84
2023-01-30T04:10:27.882Z,101592.88
2023-01-30T04:34:25.001Z,101552.09
2023-01-30T04:36:53.732Z,101554.63
2023-01-30T04:39:22.268Z,101548.75
2023-01-30T04:41:50.631Z,101553.69
2023-01-30T04:44:19.499Z,101556.69
2023-01-30T04:52:06.227Z,101541.13
2023-01-30T04:54:34.640Z,101539.97
2023-01-30T05:13:56.079Z,101532.00
2023-01-30T05:16:25.000Z,101526.28
2023-01-30T05:18:52.205Z,101528.28
2023-01-30T05:21:22.830Z,101521.44
2023-01-30T05:23:52.331Z,101530.50
2023-01-30T05:26:20.982Z,101533.66
2023-01-30T05:28:55.136Z,101529.50
2023-01-30T05:31:23.415Z,101539.44
2023-01-30T05:39:15.915Z,101552.78
2023-01-30T06:19:59.916Z,101550.00
2023-01-30T06:22:28.471Z,101552.09
2023-01-30T06:24:57.065Z,101553.09
2023-01-30T06:27:25.469Z,101561.28
2023-01-30T06:29:54.157Z,101563.94
2023-01-30T06:32:22.921Z,101561.00
2023-01-30T06:34:51.617Z,101560.72
2023-01-30T06:37:20.223Z,101549.03
2023-01-30T06:39:48.140Z,101553.06
2023-01-30T06:42:16.500Z,101565.50
2023-01-30T06:44:45.605Z,101572.06
2023-01-30T06:47:14.804Z,101579.56
2023-01-30T06:49:43.780Z,101575.88
2023-01-30T06:52:12.286Z,101573.50
2023-01-30T06:54:40.734Z,101569.66
2023-01-30T06:57:09.486Z,101569.06
2023-01-30T07:02:19.708Z,101570.72
2023-01-30T07:04:49.010Z,101576.00
2023-01-30T07:07:17.625Z,101574.91
2023-01-30T07:09:53.263Z,101587.53
2023-01-30T07:28:42.801Z,101535.84
2023-01-30T08:22:41.782Z,101530.16
2023-01-30T08:25:11.341Z,101517.72
2023-01-30T08:43:51.845Z,101485.44
2023-01-30T08:46:22.119Z,101483.22
2023-01-30T08:48:50.454Z,101480.72
2023-01-30T08:51:18.928Z,101489.06
2023-01-30T08:53:46.782Z,101506.72
2023-01-30T08:56:14.433Z,101515.47
2023-01-30T08:58:43.814Z,101496.50
2023-01-30T09:01:11.875Z,101492.94
2023-01-30T09:03:39.833Z,101493.69
2023-01-30T09:06:07.597Z,101499.91
2023-01-30T09:08:35.680Z,101500.66
2023-01-30T09:11:04.298Z,101503.56
2023-01-30T09:13:32.015Z,101506.31
2023-01-30T09:16:00.553Z,101503.16
2023-01-30T09:18:28.316Z,101508.13
2023-01-30T09:21:03.356Z,101495.97
2023-01-30T09:23:31.411Z,101500.47
2023-01-30T09:26:00.521Z,101489.88
2023-01-30T09:28:28.727Z,101488.38
2023-01-30T09:31:00.093Z,101470.94
2023-01-30T09:33:27.336Z,101472.63
2023-01-30T09:35:55.052Z,101465.56
2023-01-30T09:38:22.847Z,101469.22
2023-01-30T09:40:55.838Z,101463.78
2023-01-30T09:43:23.275Z,101466.88
2023-01-30T09:45:58.933Z,101472.28
2023-01-30T09:48:31.092Z,101467.84
2023-01-30T09:51:18.224Z,101456.88
2023-01-30T09:53:53.508Z,101454.91
2023-01-30T09:56:21.394Z,101457.66
2023-01-30T09:59:00.372Z,101454.69
2023-01-30T10:01:30.537Z,101441.19
2023-01-30T10:04:12.415Z,101436.09
2023-01-30T10:06:45.054Z,101442.75
2023-01-30T10:09:14.509Z,101441.78
2023-01-30T10:11:44.151Z,101450.06
2023-01-30T10:14:20.368Z,101433.59
2023-01-30T10:17:24.669Z,101428.41
2023-01-30T10:20:32.712Z,101427.94
2023-01-30T10:23:40.195Z,101405.09
2023-01-30T10:26:07.554Z,101405.16
2023-01-30T10:29:07.592Z,101397.50
2023-01-30T10:31:51.577Z,101386.28
2023-01-30T10:34:32.992Z,101390.75
2023-01-30T10:37:10.419Z,101384.84
2023-01-30T10:40:14.691Z,101370.06
2023-01-30T10:42:55.115Z,101365.44
2023-01-30T10:45:25.511Z,101354.84
2023-01-30T10:47:56.719Z,101347.59
2023-01-30T10:50:43.240Z,101341.59
2023-01-30T10:53:21.819Z,101332.13
2023-01-30T10:55:51.322Z,101320.44
2023-01-30T10:58:56.482Z,101311.41
2023-01-30T11:01:33.682Z,101318.69
2023-01-30T11:04:03.675Z,101321.50
2023-01-30T11:06:31.099Z,101317.63
2023-01-30T11:08:59.447Z,101331.81
2023-01-30T11:11:50.472Z,101318.22
2023-01-30T11:14:18.089Z,101309.38
2023-01-30T11:16:52.080Z,101293.53
2023-01-30T11:19:22.201Z,101285.59
2023-01-30T11:22:12.129Z,101283.75
2023-01-30T11:24:43.675Z,101261.69
2023-01-30T11:27:56.000Z,101263.31
2023-01-30T11:30:27.553Z,101265.84
2023-01-30T11:33:05.845Z,101257.06
2023-01-30T11:35:34.763Z,101252.22
2023-01-30T11:38:12.966Z,101241.91
2023-01-30T11:40:41.435Z,101239.66
2023-01-30T11:43:13.555Z,101208.69
2023-01-30T11:45:48.404Z,101212.91
2023-01-30T11:48:32.993Z,101217.63
2023-01-30T11:51:07.841Z,101204.38
2023-01-30T11:53:47.089Z,101213.75
2023-01-30T11:56:33.444Z,101225.19
2023-01-30T11:59:02.387Z,101216.63
2023-01-30T12:01:30.808Z,101200.13
2023-01-30T12:03:57.746Z,101194.59
2023-01-30T12:06:33.197Z,101189.13
2023-01-30T12:09:00.617Z,101176.56
2023-01-30T12:11:44.857Z,101164.50
2023-01-30T12:14:29.827Z,101157.06
2023-01-30T12:17:19.598Z,101140.84
2023-01-30T12:20:11.517Z,101127.31
2023-01-30T12:22:46.485Z,101131.47
2023-01-30T12:25:35.806Z,101142.91
2023-01-30T12:28:25.535Z,101119.19
2023-01-30T12:30:56.770Z,101118.66
2023-01-30T12:33:26.539Z,101117.59
2023-01-30T12:36:05.637Z,101103.09
2023-01-30T12:38:51.396Z,101107.53
2023-01-30T12:41:44.195Z,101106.03
2023-01-30T12:44:42.334Z,101098.75
2023-01-30T12:47:27.422Z,101103.66
2023-01-30T12:49:57.870Z,101095.25
2023-01-30T12:52:52.681Z,101068.00
2023-01-30T12:55:27.753Z,101083.75
2023-01-30T12:58:07.172Z,101076.06
2023-01-30T13:01:01.382Z,101058.88
2023-01-30T13:03:42.172Z,101064.47
2023-01-30T13:06:19.265Z,101064.94
2023-01-30T13:09:16.518Z,101061.38
2023-01-30T13:11:55.094Z,101020.81
2023-01-30T13:14:30.048Z,101016.31
2023-01-30T13:17:16.710Z,101033.47
2023-01-30T13:19:50.715Z,101032.28
2023-01-30T13:22:58.870Z,101031.75
2023-01-30T13:25:41.143Z,101034.91
2023-01-30T13:28:19.306Z,101025.22
2023-01-30T13:30:46.611Z,101031.59
2023-01-30T13:33:29.453Z,101032.69
2023-01-30T13:36:03.094Z,101027.78
2023-01-30T13:38:50.336Z,101005.84
2023-01-30T13:41:18.368Z,101011.69
2023-01-30T13:43:50.005Z,101007.72
2023-01-30T13:46:20.522Z,101005.38
2023-01-30T13:49:05.915Z,101009.72
2023-01-30T13:51:49.697Z,100995.69
2023-01-30T13:54:22.751Z,100998.22
2023-01-30T13:57:31.041Z,100980.09
2023-01-30T14:00:10.116Z,100983.34
2023-01-30T14:03:08.553Z,100981.75
2023-01-30T14:06:03.318Z,100962.63
2023-01-30T14:08:34.066Z,100964.69
2023-01-30T14:11:01.564Z,100970.78
2023-01-30T14:13:30.146Z,100965.66
2023-01-30T14:16:02.091Z,100961.19
2023-01-30T14:18:42.612Z,100959.31
2023-01-30T14:21:40.341Z,100956.59
2023-01-30T14:24:35.292Z,100952.69
2023-01-30T14:27:23.769Z,100944.25
2023-01-30T14:29:52.562Z,100933.66
2023-01-30T14:32:19.274Z,100948.81
2023-01-30T14:35:39.125Z,100943.44
2023-01-30T14:38:14.890Z,100939.59
2023-01-30T14:41:06.675Z,100937.25
2023-01-30T14:43:42.465Z,100938.69
2023-01-30T14:46:38.065Z,100945.06
2023-01-30T14:49:06.887Z,100940.16
2023-01-30T14:51:59.218Z,100950.53
2023-01-30T14:54:40.929Z,100938.63
2023-01-30T14:57:21.995Z,100935.78
2023-01-30T15:00:14.986Z,100936.25
2023-01-30T15:02:44.413Z,100940.34
2023-01-30T15:06:02.774Z,100937.69
2023-01-30T15:08:50.324Z,100943.09
2023-01-30T15:11:18.749Z,100947.78
2023-01-30T15:14:10.270Z,100935.97
2023-01-30T15:16:49.342Z,100936.28
2023-01-30T15:19:24.816Z,100947.88
2023-01-30T15:22:32.739Z,100963.47
2023-01-30T15:25:40.576Z,100956.31
2023-01-30T15:28:22.786Z,100938.75
2023-01-30T15:31:08.466Z,100921.94
2023-01-30T15:33:35.774Z,100920.91
2023-01-30T15:36:38.950Z,100932.44
2023-01-30T15:39:25.386Z,100939.50
2023-01-30T15:41:53.107Z,100939.84
2023-01-30T15:44:35.010Z,100947.56
2023-01-30T15:47:23.878Z,100960.91
2023-01-30T15:50:03.222Z,100951.44
2023-01-30T15:52:37.372Z,100937.69
2023-01-30T15:55:05.349Z,100936.81
2023-01-30T15:57:35.209Z,100944.16
2023-01-30T16:00:03.552Z,100941.41
2023-01-30T16:02:35.918Z,100949.00
2023-01-30T16:05:36.245Z,100953.44
2023-01-30T16:08:11.185Z,100962.84
2023-01-30T16:10:44.828Z,100955.94
2023-01-30T16:13:12.962Z,100956.22
2023-01-30T16:15:43.148Z,100969.06
2023-01-30T16:18:19.308Z,100978.69
2023-01-30T16:21:00.119Z,100979.81
2023-01-30T16:23:36.892Z,100970.78
2023-01-30T16:26:03.784Z,100964.19
2023-01-30T16:28:31.508Z,100972.16
2023-01-30T16:31:06.326Z,100965.72
2023-01-30T16:33:36.999Z,100961.78
2023-01-30T16:36:06.799Z,100963.31
2023-01-30T16:38:37.764Z,100964.69
2023-01-30T16:41:05.151Z,100972.06
2023-01-30T16:43:34.077Z,100968.53
2023-01-30T16:46:42.237Z,100983.63
2023-01-30T16:49:26.005Z,100980.00
2023-01-30T16:52:14.624Z,100979.75
2023-01-30T16:54:46.213Z,100975.94
2023-01-30T16:57:28.595Z,100976.47
2023-01-30T17:00:03.876Z,100984.72
2023-01-30T17:02:55.131Z,100985.38
2023-01-30T17:05:29.415Z,100998.91
2023-01-30T17:07:56.611Z,100993.47
2023-01-30T17:10:28.859Z,100985.81
2023-01-30T17:12:57.617Z,100980.13
2023-01-30T17:15:33.353Z,100987.59
2023-01-30T17:18:00.609Z,100994.38
2023-01-30T17:20:51.798Z,100983.59
2023-01-30T17:23:20.310Z,100984.00
2023-01-30T17:25:47.881Z,100986.44
2023-01-30T17:28:21.395Z,100998.16
2023-01-30T17:30:50.386Z,100993.47
2023-01-30T17:33:18.779Z,100989.69
2023-01-30T17:35:46.674Z,100995.22
2023-01-30T17:38:14.574Z,100997.44
2023-01-30T17:40:43.098Z,101001.28
2023-01-30T17:43:13.173Z,100993.59
2023-01-30T17:45:40.597Z,101006.94
2023-01-30T17:48:08.304Z,101002.28
2023-01-30T17:50:36.679Z,101000.19
2023-01-30T17:53:04.302Z,101005.13
2023-01-30T17:55:33.077Z,101021.91
2023-01-30T17:58:00.731Z,101017.31
2023-01-30T18:00:28.845Z,101022.28
2023-01-30T18:02:56.561Z,101015.22
2023-01-30T18:05:24.190Z,101022.72
2023-01-30T18:07:52.274Z,101023.34
2023-01-30T18:10:20.571Z,101024.94
2023-01-30T18:12:48.398Z,101024.94
2023-01-30T18:15:16.246Z,101017.19
2023-01-30T18:17:47.743Z,101010.88
2023-01-30T18:20:16.676Z,101025.75
2023-01-30T18:22:44.787Z,101018.97
2023-01-30T18:25:13.847Z,101011.78
2023-01-30T18:27:44.727Z,101008.88
2023-01-30T18:30:17.258Z,100996.66
2023-01-30T18:32:52.842Z,101010.91
2023-01-30T18:35:22.291Z,101017.22
2023-01-30T18:37:50.299Z,101021.84
2023-01-30T18:40:20.159Z,101015.97
2023-01-30T18:42:47.539Z,101019.22
2023-01-30T18:45:15.613Z,101015.69
2023-01-30T18:47:43.739Z,101017.22
2023-01-30T18:50:12.962Z,101025.53
2023-01-30T18:52:40.615Z,101026.16
2023-01-30T18:55:08.966Z,101023.59
2023-01-30T18:57:36.609Z,101025.28
2023-01-30T19:00:06.212Z,101033.53
2023-01-30T19:02:34.375Z,101027.13
2023-01-30T19:05:01.792Z,101020.78
2023-01-30T19:07:29.686Z,101025.88
2023-01-30T19:09:57.698Z,101024.72
2023-01-30T19:12:43.763Z,101026.28
2023-01-30T19:15:11.902Z,101031.13
2023-01-30T19:17:39.545Z,101029.09
2023-01-30T19:20:11.150Z,101033.91
2023-01-30T19:22:39.209Z,101030.41
2023-01-30T19:25:08.174Z,101036.59
2023-01-30T19:27:37.348Z,101055.03
2023-01-30T19:30:07.612Z,101066.59
2023-01-30T19:32:35.391Z,101069.94
2023-01-30T19:35:03.132Z,101080.63
2023-01-30T19:37:30.722Z,101078.00
2023-01-30T19:39:58.757Z,101086.22
2023-01-30T19:42:26.896Z,101097.59
2023-01-30T19:44:54.518Z,101099.19
2023-01-30T19:47:23.014Z,101090.88
2023-01-30T19:49:51.222Z,101091.75
2023-01-30T19:52:19.380Z,101091.44
2023-01-30T19:54:48.396Z,101100.34
2023-01-30T19:57:16.495Z,101097.03
2023-01-30T20:13:07.643Z,101129.16
2023-01-30T20:26:52.064Z,101132.97
2023-01-30T20:31:55.280Z,101133.25
2023-01-30T20:34:24.037Z,101137.94
2023-01-30T20:36:52.483Z,101144.59
2023-01-30T20:47:47.697Z,101174.31
2023-01-30T20:50:15.703Z,101170.56
2023-01-30T20:52:43.928Z,101178.00
2023-01-30T20:55:12.502Z,101193.91
2023-01-30T20:57:43.589Z,101194.59
2023-01-30T21:00:13.267Z,101202.22
2023-01-30T21:02:42.731Z,101202.81
2023-01-30T21:05:10.524Z,101206.03
2023-01-30T21:07:38.540Z,101210.88
2023-01-30T21:10:10.433Z,101207.28
2023-01-30T22:09:06.334Z,101315.22
2023-01-30T22:11:34.686Z,101316.00
2023-01-30T22:14:02.813Z,101312.03
2023-01-30T22:16:33.176Z,101303.16
2023-01-30T22:19:03.185Z,101311.53
2023-01-30T22:21:34.076Z,101323.25
2023-01-30T22:24:02.178Z,101333.19
2023-01-30T22:26:30.262Z,101327.25
2023-01-30T22:28:59.432Z,101329.66
2023-01-30T22:31:28.889Z,101343.25
2023-01-30T22:33:56.550Z,101346.44
2023-01-30T22:36:26.020Z,101336.28
2023-01-30T22:38:54.262Z,101354.59
2023-01-30T22:41:25.703Z,101367.31
2023-01-30T22:43:55.584Z,101374.94
2023-01-30T22:46:50.083Z,101368.84
2023-01-30T22:49:18.049Z,101377.88
2023-01-30T22:51:45.953Z,101390.72
2023-01-30T22:54:17.230Z,101384.38
2023-01-30T22:56:46.314Z,101394.31
2023-01-30T22:59:14.463Z,101396.09
2023-01-30T23:01:43.345Z,101390.78
2023-01-30T23:04:37.797Z,101396.63
2023-01-30T23:07:06.109Z,101401.56
2023-01-30T23:09:34.084Z,101399.94
2023-01-30T23:12:20.755Z,101388.78
2023-01-30T23:14:48.825Z,101410.50
2023-01-30T23:17:34.754Z,101426.09
2023-01-30T23:20:02.700Z,101416.19
2023-01-30T23:22:30.895Z,101414.41
2023-01-30T23:24:58.999Z,101431.16
2023-01-30T23:27:27.169Z,101430.94
2023-01-30T23:29:55.256Z,101444.19
2023-01-30T23:32:23.677Z,101435.97
2023-01-30T23:34:50.900Z,101429.09
2023-01-30T23:37:18.502Z,101424.69
2023-01-30T23:39:46.708Z,101433.84
2023-01-30T23:42:14.791Z,101442.44
2023-01-30T23:44:42.814Z,101439.69
2023-01-30T23:47:10.790Z,101442.38
2023-01-30T23:49:38.747Z,101448.88
2023-01-30T23:52:07.098Z,101456.13
2023-01-30T23:54:35.230Z,101463.63
2023-01-30T23:57:03.583Z,101462.38
2023-01-30T23:59:31.360Z,101457.09
